Hoytsville, Utah
Current Conditions -  °F | °C
As of 5:53 PM on Friday 24 Oct 2014 (Local Time) from KEVW Reporting Station
Clear Clear  
Wind Chill: 64°   Ceiling: Unl
Heat Index: 64°   Visibility: 10mi
Dew Point: 25°   Wind: 15mph
Humidity: 23%   Direction: 260°W
Pressure: 30.25"   Gusts: NA
Location:  40.9431°N, 111.212°W
Report Text: KEVW 242353Z AUTO 26013KT 10SM CLR 18/M04 A3025 RMK AO2 SLP177 T01781039 10211 20178 57001 TSNO
Loading
Personal Weather Stations






























Interactive Weather Map
Tropical Storm Tracking
New forecast layout! Learn more

10-Day Weather Forecast

Advertisements
Track Severe Weather on mobile